Time;durP1;ratioP1;P1;durP2;ratioP2;P2;SDS_P1;SDS_P2;PMS_P1;PMS_P2;Temp;Humidity;BMP_temperature;BMP_pressure;BME280_temperature;BME280_humidity;BME280_pressure;Samples;Min_cycle;Max_cycle;Signal;HPM_P1;HPM_P2
2022/02/25 00:01:38;;;;;;;8.27;2.50;;;15.70;50.20;;;;;;6201591;28;20038;-72
2022/02/25 00:04:39;;;;;;;6.03;1.98;;;15.70;50.00;;;;;;6202263;28;20039;-72
2022/02/25 00:07:40;;;;;;;22.80;3.45;;;15.70;49.80;;;;;;6201865;28;20106;-71
2022/02/25 00:10:41;;;;;;;16.77;2.88;;;15.70;49.60;;;;;;6163752;28;20367;-71
2022/02/25 00:13:41;;;;;;;5.75;1.98;;;15.60;49.50;;;;;;6137025;28;20436;-71
2022/02/25 00:16:42;;;;;;;9.00;1.70;;;15.50;49.00;;;;;;6168854;28;20448;-70
2022/02/25 00:19:44;;;;;;;2.13;1.15;;;15.30;48.70;;;;;;6152500;28;20182;-71
2022/02/25 00:22:46;;;;;;;6.32;1.75;;;15.10;48.60;;;;;;6175447;28;20507;-69
2022/02/25 00:25:47;;;;;;;5.38;1.35;;;14.90;48.70;;;;;;6176851;28;20051;-71
2022/02/25 00:28:48;;;;;;;1.65;0.98;;;14.60;49.00;;;;;;6176427;28;20039;-71
2022/02/25 00:31:49;;;;;;;3.38;1.30;;;14.50;49.30;;;;;;6176574;28;20046;-71
2022/02/25 00:34:50;;;;;;;1.83;0.77;;;14.30;49.10;;;;;;6176381;28;20110;-71
2022/02/25 00:37:51;;;;;;;3.40;0.82;;;14.30;49.20;;;;;;6172011;28;20098;-71
2022/02/25 00:40:52;;;;;;;0.68;0.63;;;14.10;49.00;;;;;;6153219;28;20476;-71
2022/02/25 00:43:52;;;;;;;4.65;0.63;;;14.00;48.90;;;;;;6153479;28;20377;-71
2022/02/25 00:46:53;;;;;;;3.40;0.60;;;14.00;48.80;;;;;;6152366;28;20366;-71
2022/02/25 00:49:54;;;;;;;1.98;0.50;;;13.90;48.80;;;;;;6153092;28;20106;-71
2022/02/25 00:52:55;;;;;;;2.53;0.90;;;13.80;48.70;;;;;;6176602;28;20341;-71
2022/02/25 00:55:56;;;;;;;0.90;0.60;;;13.70;48.80;;;;;;6176190;28;20031;-71
2022/02/25 00:58:57;;;;;;;2.72;0.77;;;13.60;48.80;;;;;;6175700;28;20074;-72
2022/02/25 01:01:58;;;;;;;2.53;0.73;;;13.60;49.00;;;;;;6177115;28;20062;-70
2022/02/25 01:05:00;;;;;;;1.25;0.70;;;13.60;49.00;;;;;;6175520;28;20058;-71
2022/02/25 01:08:06;;;;;;;3.80;0.77;;;13.50;48.90;;;;;;6176212;28;20034;-71
2022/02/25 01:11:07;;;;;;;3.45;0.50;;;13.50;48.90;;;;;;6151395;28;20126;-71
2022/02/25 01:14:08;;;;;;;4.97;0.50;;;13.40;48.70;;;;;;6151812;28;20050;-69
2022/02/25 01:17:09;;;;;;;2.15;0.40;;;13.40;48.50;;;;;;6167757;28;20135;-69
2022/02/25 01:20:10;;;;;;;0.45;0.40;;;13.40;49.00;;;;;;6159073;28;20035;-71
2022/02/25 01:23:11;;;;;;;1.60;0.38;;;13.40;48.50;;;;;;6198953;28;20054;-71
2022/02/25 01:26:12;;;;;;;0.40;0.30;;;13.40;48.30;;;;;;6200857;28;20026;-71
2022/02/25 01:29:13;;;;;;;2.28;0.30;;;13.30;47.90;;;;;;6199712;28;20116;-71
2022/02/25 01:32:14;;;;;;;2.00;0.52;;;13.30;47.80;;;;;;6198904;28;20050;-72
2022/02/25 01:35:15;;;;;;;1.08;0.63;;;13.30;47.80;;;;;;6181884;28;20363;-71
2022/02/25 01:38:15;;;;;;;0.93;0.40;;;13.30;47.50;;;;;;6211835;28;20053;-71
2022/02/25 01:41:16;;;;;;;11.50;0.60;;;13.20;47.30;;;;;;6150882;28;20047;-71
2022/02/25 01:44:20;;;;;;;2.90;0.43;;;13.20;47.10;;;;;;6152153;28;20038;-71
2022/02/25 01:47:21;;;;;;;8.10;0.32;;;13.20;46.70;;;;;;6154405;28;20039;-71
2022/02/25 01:50:22;;;;;;;1.98;0.65;;;13.20;46.60;;;;;;6152633;28;20097;-71
2022/02/25 01:53:23;;;;;;;2.70;0.70;;;13.10;46.30;;;;;;6175483;28;20047;-71
2022/02/25 01:56:24;;;;;;;3.50;0.55;;;13.10;46.10;;;;;;6175833;28;20038;-71
2022/02/25 01:59:30;;;;;;;9.10;0.77;;;13.10;45.80;;;;;;6175475;28;20117;-72
2022/02/25 02:02:31;;;;;;;1.13;0.52;;;13.10;45.20;;;;;;6176217;28;20046;-71
2022/02/25 02:05:33;;;;;;;1.88;0.68;;;13.10;44.90;;;;;;6159230;28;20035;-72
2022/02/25 02:08:35;;;;;;;7.43;0.30;;;13.10;44.70;;;;;;6175851;28;20467;-71
2022/02/25 02:11:40;;;;;;;1.85;0.30;;;13.10;44.60;;;;;;6176606;28;20038;-71
2022/02/25 02:14:41;;;;;;;1.83;0.73;;;13.10;44.10;;;;;;6173310;28;20375;-72
2022/02/25 02:17:42;;;;;;;0.20;0.20;;;13.10;44.00;;;;;;6191099;28;20038;-71
2022/02/25 02:20:43;;;;;;;1.17;0.55;;;13.10;43.90;;;;;;6181709;28;20464;-72
2022/02/25 02:23:44;;;;;;;1.02;0.52;;;13.10;43.80;;;;;;6199580;28;20046;-72
2022/02/25 02:26:46;;;;;;;1.65;0.55;;;13.20;43.90;;;;;;6200144;28;20038;-72
2022/02/25 02:29:47;;;;;;;2.10;0.73;;;13.20;43.70;;;;;;6198641;28;20092;-71
2022/02/25 02:32:48;;;;;;;2.10;0.45;;;13.20;43.70;;;;;;6200415;28;20471;-71
2022/02/25 02:35:49;;;;;;;3.38;0.30;;;13.20;43.80;;;;;;6193537;28;20039;-71
2022/02/25 02:38:50;;;;;;;1.30;0.50;;;13.20;43.90;;;;;;6151216;28;20050;-72
2022/02/25 02:41:51;;;;;;;2.90;0.60;;;13.10;43.80;;;;;;6166817;28;20046;-72
2022/02/25 02:44:52;;;;;;;1.90;0.40;;;13.10;44.50;;;;;;6151758;28;20046;-71
2022/02/25 02:47:53;;;;;;;3.08;0.70;;;13.10;44.10;;;;;;6150830;28;20027;-71
2022/02/25 02:50:54;;;;;;;1.63;0.52;;;13.10;44.40;;;;;;6157400;28;20031;-71
2022/02/25 02:53:56;;;;;;;2.25;0.40;;;13.10;44.60;;;;;;6175839;28;20424;-72
2022/02/25 02:56:57;;;;;;;2.58;0.50;;;13.10;44.90;;;;;;6174857;28;20037;-71
2022/02/25 02:59:58;;;;;;;8.10;0.60;;;13.10;45.20;;;;;;6175842;28;20035;-71
2022/02/25 03:02:59;;;;;;;4.88;0.55;;;13.00;45.50;;;;;;6174758;28;20118;-71
2022/02/25 03:06:00;;;;;;;1.95;0.60;;;13.00;45.60;;;;;;6190708;28;20049;-71
2022/02/25 03:09:00;;;;;;;0.65;0.30;;;13.00;45.70;;;;;;6159860;28;20032;-71
2022/02/25 03:12:02;;;;;;;3.80;0.70;;;13.00;45.70;;;;;;6151064;28;20042;-71
2022/02/25 03:15:04;;;;;;;6.93;0.55;;;13.00;45.60;;;;;;6153453;28;20061;-72
2022/02/25 03:18:06;;;;;;;1.92;0.50;;;13.00;45.70;;;;;;6150320;28;20472;-72
2022/02/25 03:21:10;;;;;;;3.40;0.50;;;13.00;45.80;;;;;;6160131;28;20452;-71
2022/02/25 03:24:10;;;;;;;5.00;0.75;;;13.00;46.60;;;;;;6174084;28;20353;-71
2022/02/25 03:27:11;;;;;;;0.43;0.35;;;12.90;46.30;;;;;;6174498;28;20031;-72
2022/02/25 03:30:13;;;;;;;4.78;0.40;;;12.90;46.60;;;;;;6174149;28;20038;-72
2022/02/25 03:33:14;;;;;;;4.75;0.57;;;12.80;46.90;;;;;;6175141;28;20031;-71
2022/02/25 03:36:15;;;;;;;1.85;0.50;;;12.80;47.10;;;;;;6178564;28;20371;-71
2022/02/25 03:39:16;;;;;;;1.30;0.43;;;12.70;47.20;;;;;;6177786;28;20106;-71
2022/02/25 03:42:16;;;;;;;1.33;0.40;;;12.70;47.50;;;;;;6179556;28;20345;-71
2022/02/25 03:45:17;;;;;;;1.13;0.50;;;12.60;47.70;;;;;;6169488;28;20130;-71
2022/02/25 03:48:18;;;;;;;2.85;0.68;;;12.60;48.00;;;;;;6155756;28;20083;-71
2022/02/25 03:51:23;;;;;;;2.47;0.50;;;12.50;48.30;;;;;;6166380;28;20218;-72
2022/02/25 03:54:24;;;;;;;1.38;0.50;;;12.50;48.50;;;;;;6202196;28;20097;-71
2022/02/25 03:57:25;;;;;;;3.20;0.63;;;12.50;48.80;;;;;;6202619;28;20467;-69
2022/02/25 04:00:26;;;;;;;5.72;0.77;;;12.50;48.80;;;;;;6201981;28;20046;-70
2022/02/25 04:03:26;;;;;;;1.83;0.47;;;12.40;48.80;;;;;;6202636;28;20043;-70
2022/02/25 04:06:27;;;;;;;1.27;0.70;;;12.50;49.00;;;;;;6202183;28;20038;-69
2022/02/25 04:09:28;;;;;;;2.80;1.15;;;12.40;49.20;;;;;;6182363;28;20126;-69
2022/02/25 04:12:29;;;;;;;1.17;0.47;;;12.40;49.30;;;;;;6154057;28;20047;-69
2022/02/25 04:15:30;;;;;;;5.25;0.63;;;12.30;49.40;;;;;;6154974;28;20487;-69
2022/02/25 04:18:31;;;;;;;1.55;0.57;;;12.30;49.80;;;;;;6156279;28;20043;-72
2022/02/25 04:21:32;;;;;;;0.90;0.55;;;12.20;50.00;;;;;;6149042;28;20537;-69
2022/02/25 04:24:33;;;;;;;3.97;0.85;;;12.20;50.20;;;;;;6179045;28;20043;-71
2022/02/25 04:27:34;;;;;;;7.90;0.77;;;12.10;50.20;;;;;;6177757;28;20061;-69
2022/02/25 04:30:35;;;;;;;3.67;0.93;;;12.10;50.10;;;;;;6178729;28;20119;-70
2022/02/25 04:33:36;;;;;;;7.25;0.63;;;12.10;50.20;;;;;;6178002;28;20049;-70
2022/02/25 04:36:38;;;;;;;1.38;0.40;;;12.10;50.20;;;;;;6177319;28;20122;-70
2022/02/25 04:39:38;;;;;;;8.52;0.60;;;12.10;50.30;;;;;;6192812;28;20051;-69
2022/02/25 04:42:39;;;;;;;0.75;0.30;;;12.00;50.30;;;;;;6177703;28;20121;-70
2022/02/25 04:45:41;;;;;;;1.75;0.40;;;12.00;50.40;;;;;;6176496;28;20046;-69
2022/02/25 04:48:42;;;;;;;1.05;0.40;;;11.90;50.50;;;;;;6177304;28;20062;-68
2022/02/25 04:51:43;;;;;;;0.57;0.57;;;11.90;50.60;;;;;;6178034;28;20444;-71
2022/02/25 04:54:45;;;;;;;2.08;0.40;;;11.90;50.60;;;;;;6177323;28;20039;-70
2022/02/25 04:57:47;;;;;;;0.95;0.30;;;11.90;50.60;;;;;;6178402;28;20387;-71
2022/02/25 05:00:48;;;;;;;1.00;0.40;;;11.90;50.70;;;;;;6177344;28;20039;-71
2022/02/25 05:03:50;;;;;;;1.27;0.60;;;11.90;50.70;;;;;;6177412;28;20419;-72
2022/02/25 05:06:51;;;;;;;0.80;0.40;;;11.80;50.70;;;;;;6163142;28;20134;-71
2022/02/25 05:09:52;;;;;;;8.95;0.68;;;11.80;50.80;;;;;;6180653;28;20478;-69
2022/02/25 05:12:54;;;;;;;4.43;0.55;;;11.80;50.80;;;;;;6164854;28;20055;-69
2022/02/25 05:22:35;;;;;;;3.55;0.60;;;11.70;51.20;;;;;;6172566;28;20082;-70
2022/02/25 05:25:36;;;;;;;1.90;0.57;;;11.70;51.30;;;;;;6177811;28;20039;-70
2022/02/25 05:28:39;;;;;;;0.93;0.40;;;11.70;51.40;;;;;;6176803;28;20066;-70
2022/02/25 05:31:40;;;;;;;4.70;0.77;;;11.70;51.50;;;;;;6176049;28;20035;-71
2022/02/25 05:34:42;;;;;;;1.02;0.73;;;11.70;51.60;;;;;;6176386;28;20031;-71
2022/02/25 05:37:45;;;;;;;1.90;0.70;;;11.60;51.60;;;;;;6174178;28;20047;-70
2022/02/25 05:40:46;;;;;;;5.25;0.40;;;11.60;51.80;;;;;;6168907;28;20031;-71
2022/02/25 05:43:48;;;;;;;2.65;0.50;;;11.50;52.00;;;;;;6173793;28;20027;-71
2022/02/25 05:46:49;;;;;;;2.15;0.55;;;11.60;52.10;;;;;;6177888;28;20031;-70
2022/02/25 05:49:50;;;;;;;4.05;0.50;;;11.50;52.20;;;;;;6145526;28;20035;-70
2022/02/25 05:52:52;;;;;;;2.28;0.60;;;11.40;52.40;;;;;;6220469;28;20094;-70
2022/02/25 05:55:53;;;;;;;2.78;0.60;;;11.40;53.00;;;;;;6212402;28;20034;-70
2022/02/25 05:58:54;;;;;;;1.13;0.55;;;11.40;52.40;;;;;;6228936;28;20100;-70
2022/02/25 06:01:55;;;;;;;1.85;0.60;;;11.40;52.50;;;;;;6209482;28;20042;-70
2022/02/25 06:04:56;;;;;;;4.38;1.05;;;11.40;52.50;;;;;;6205458;28;20035;-71
2022/02/25 06:07:59;;;;;;;1.15;0.50;;;11.40;52.50;;;;;;6202485;28;20054;-70
2022/02/25 06:11:00;;;;;;;2.08;0.90;;;11.40;52.70;;;;;;6196018;28;20110;-70
2022/02/25 06:14:01;;;;;;;2.63;0.82;;;11.40;52.70;;;;;;6198199;28;20031;-70
2022/02/25 06:17:03;;;;;;;2.63;0.75;;;11.30;52.70;;;;;;6198710;28;20038;-70
2022/02/25 06:20:04;;;;;;;1.10;0.70;;;11.30;52.80;;;;;;6167480;28;20154;-70
2022/02/25 06:23:05;;;;;;;1.98;0.70;;;11.30;52.80;;;;;;6194796;28;20035;-71
2022/02/25 06:26:06;;;;;;;0.77;0.70;;;11.30;52.80;;;;;;6163450;28;20045;-70
2022/02/25 06:29:07;;;;;;;2.92;0.95;;;11.30;52.90;;;;;;6179490;28;20039;-69
2022/02/25 06:32:08;;;;;;;12.43;1.10;;;11.30;52.80;;;;;;6168932;28;20134;-72
2022/02/25 06:35:13;;;;;;;1.42;0.63;;;11.30;52.90;;;;;;6164969;28;20466;-71
2022/02/25 06:38:14;;;;;;;1.42;0.57;;;11.30;52.70;;;;;;6176053;28;20054;-69
2022/02/25 06:41:16;;;;;;;3.22;0.73;;;11.20;52.60;;;;;;6181960;28;20043;-70
2022/02/25 06:44:17;;;;;;;3.03;0.93;;;11.20;52.70;;;;;;6153815;28;20048;-71
2022/02/25 06:47:18;;;;;;;1.65;0.60;;;11.20;52.70;;;;;;6153918;28;20039;-70
2022/02/25 06:50:19;;;;;;;0.90;0.70;;;11.20;52.80;;;;;;6155195;28;20058;-70
2022/02/25 06:53:21;;;;;;;3.25;0.77;;;11.10;52.80;;;;;;6159351;28;20058;-70
2022/02/25 06:56:22;;;;;;;0.93;0.60;;;11.10;52.80;;;;;;6143560;28;20049;-73
2022/02/25 06:59:23;;;;;;;1.58;0.50;;;11.10;52.70;;;;;;6176859;28;20070;-69
2022/02/25 07:02:24;;;;;;;4.60;1.08;;;11.10;52.60;;;;;;6170290;28;20132;-70
2022/02/25 07:05:25;;;;;;;1.88;0.80;;;11.10;52.60;;;;;;6168044;28;20511;-71
2022/02/25 07:08:26;;;;;;;2.53;0.60;;;11.20;52.60;;;;;;6188246;28;20050;-68
2022/02/25 07:11:29;;;;;;;7.22;0.65;;;11.10;52.50;;;;;;6171443;28;20058;-69
2022/02/25 07:14:30;;;;;;;2.92;0.93;;;11.10;52.60;;;;;;6173039;28;20067;-72
2022/02/25 07:17:31;;;;;;;6.53;0.80;;;11.10;52.60;;;;;;6157067;28;20118;-71
2022/02/25 07:20:33;;;;;;;3.50;0.90;;;11.10;52.50;;;;;;6157238;28;20047;-72
2022/02/25 07:23:34;;;;;;;1.48;0.60;;;11.10;52.50;;;;;;6177907;28;20031;-72
2022/02/25 07:26:35;;;;;;;9.13;1.15;;;11.10;52.50;;;;;;6178690;28;20117;-72
2022/02/25 07:29:36;;;;;;;8.07;1.02;;;11.10;52.50;;;;;;6178955;28;20034;-72
2022/02/25 07:32:37;;;;;;;3.67;1.20;;;11.10;52.40;;;;;;6177672;28;20089;-71
2022/02/25 07:35:38;;;;;;;3.35;0.73;;;11.10;52.40;;;;;;6177525;28;20035;-71
2022/02/25 07:38:38;;;;;;;0.98;0.63;;;11.10;52.40;;;;;;6177489;28;20141;-71
2022/02/25 07:41:39;;;;;;;5.78;1.02;;;11.10;52.50;;;;;;6161442;28;20035;-71
2022/02/25 07:44:40;;;;;;;5.60;2.05;;;11.10;52.50;;;;;;6193472;28;20054;-71
2022/02/25 07:47:41;;;;;;;3.63;0.93;;;11.10;52.50;;;;;;6165120;28;20427;-71
2022/02/25 07:50:44;;;;;;;7.35;1.10;;;11.10;52.50;;;;;;6176223;28;20045;-71
2022/02/25 07:53:46;;;;;;;4.88;0.88;;;11.10;52.40;;;;;;6202627;28;20038;-71
2022/02/25 07:56:47;;;;;;;1.38;0.55;;;11.20;52.30;;;;;;6201353;28;20034;-71
2022/02/25 07:59:48;;;;;;;1.23;0.60;;;11.20;52.20;;;;;;6201109;28;20046;-71
2022/02/25 08:02:50;;;;;;;2.20;0.80;;;11.20;52.20;;;;;;6200612;28;20041;-71
2022/02/25 08:05:50;;;;;;;11.70;0.68;;;11.20;52.20;;;;;;6201188;28;20443;-71
2022/02/25 08:08:51;;;;;;;3.40;0.50;;;11.20;52.20;;;;;;6189504;28;20059;-71
2022/02/25 08:11:52;;;;;;;1.35;0.80;;;11.20;52.80;;;;;;6136673;28;20114;-71
2022/02/25 08:14:53;;;;;;;8.07;1.50;;;11.20;52.00;;;;;;6169046;28;20400;-71
2022/02/25 08:17:54;;;;;;;1.20;0.88;;;11.30;52.10;;;;;;6155079;28;20069;-71
2022/02/25 08:20:55;;;;;;;4.38;0.80;;;11.20;52.10;;;;;;6158633;28;20031;-70
2022/02/25 08:23:56;;;;;;;5.85;1.15;;;11.20;52.20;;;;;;6176427;28;20046;-70
2022/02/25 08:26:57;;;;;;;3.85;0.95;;;11.20;52.20;;;;;;6177476;28;20034;-70
2022/02/25 08:29:58;;;;;;;3.97;0.77;;;11.30;52.90;;;;;;6177220;28;20027;-71
2022/02/25 08:33:02;;;;;;;4.10;1.15;;;11.20;52.20;;;;;;6173072;28;20038;-70
2022/02/25 08:36:03;;;;;;;2.90;1.08;;;11.20;52.20;;;;;;6136135;28;20050;-71
2022/02/25 08:39:05;;;;;;;3.38;0.80;;;11.20;52.20;;;;;;6175388;28;20408;-71
2022/02/25 08:42:06;;;;;;;3.15;0.98;;;11.20;52.30;;;;;;6192321;28;20042;-70
2022/02/25 08:45:09;;;;;;;9.25;1.65;;;11.20;52.30;;;;;;6176255;28;20367;-71
2022/02/25 08:48:11;;;;;;;8.00;1.00;;;11.20;52.30;;;;;;6177150;28;20418;-70
2022/02/25 08:51:12;;;;;;;3.50;0.98;;;11.20;52.30;;;;;;6192020;28;20035;-70
2022/02/25 08:54:16;;;;;;;6.00;1.10;;;11.20;52.30;;;;;;6176931;28;20049;-70
2022/02/25 08:57:17;;;;;;;11.77;1.15;;;11.30;52.30;;;;;;6176751;28;20041;-71
2022/02/25 09:00:21;;;;;;;5.53;1.00;;;11.30;52.10;;;;;;6176691;28;20094;-71
2022/02/25 09:03:22;;;;;;;6.35;1.00;;;11.30;52.00;;;;;;6157746;28;20456;-73
2022/02/25 09:06:23;;;;;;;3.70;1.48;;;11.40;52.40;;;;;;6153215;28;20050;-70
2022/02/25 09:09:24;;;;;;;6.70;1.02;;;11.40;51.50;;;;;;6153202;28;20475;-70
2022/02/25 09:12:25;;;;;;;6.30;0.85;;;11.40;51.40;;;;;;6168878;28;20062;-70
2022/02/25 09:15:27;;;;;;;4.45;0.73;;;11.50;51.20;;;;;;6136974;28;20098;-70
2022/02/25 09:18:28;;;;;;;3.45;0.95;;;11.50;51.00;;;;;;6153498;28;20039;-71
2022/02/25 09:21:29;;;;;;;6.20;1.33;;;11.50;50.80;;;;;;6187041;28;20038;-71
2022/02/25 09:24:30;;;;;;;3.20;0.85;;;11.50;50.80;;;;;;6201341;28;20046;-69
2022/02/25 09:27:32;;;;;;;1.70;0.80;;;11.50;50.50;;;;;;6200843;28;20031;-72
2022/02/25 09:30:33;;;;;;;14.13;1.23;;;11.50;50.40;;;;;;6199580;28;20125;-71
2022/02/25 09:33:35;;;;;;;1.48;0.60;;;11.70;50.30;;;;;;6200275;28;20467;-71
2022/02/25 09:36:36;;;;;;;7.13;1.00;;;11.70;50.20;;;;;;6199694;28;20112;-71
2022/02/25 09:39:37;;;;;;;7.53;1.23;;;11.80;50.00;;;;;;6177227;28;20460;-71
2022/02/25 09:42:39;;;;;;;3.70;1.02;;;11.80;49.60;;;;;;6152085;28;20067;-71
2022/02/25 09:45:40;;;;;;;7.28;1.05;;;11.90;49.50;;;;;;6175732;28;20125;-71
2022/02/25 09:48:41;;;;;;;2.10;0.63;;;11.90;49.40;;;;;;6175457;28;20034;-71
2022/02/25 09:51:42;;;;;;;2.72;1.05;;;12.00;49.10;;;;;;6185475;28;20065;-71
2022/02/25 09:54:44;;;;;;;2.65;0.57;;;12.10;48.80;;;;;;6200902;28;20384;-71
2022/02/25 09:57:44;;;;;;;9.40;0.82;;;12.30;48.30;;;;;;6200495;28;20050;-71
2022/02/25 10:00:46;;;;;;;6.18;0.75;;;12.50;47.90;;;;;;6199070;28;20041;-71
2022/02/25 10:03:52;;;;;;;3.80;0.80;;;12.60;46.60;;;;;;6200247;28;20101;-71
2022/02/25 10:06:52;;;;;;;3.75;0.80;;;12.70;46.10;;;;;;6189532;28;20089;-70
2022/02/25 10:09:53;;;;;;;6.50;0.80;;;12.90;45.50;;;;;;6184174;28;20038;-72
2022/02/25 10:12:59;;;;;;;1.23;0.65;;;13.10;44.90;;;;;;6175966;28;20042;-70
2022/02/25 10:16:07;;;;;;;4.88;0.57;;;13.20;44.00;;;;;;6158566;28;20071;-70
2022/02/25 10:19:08;;;;;;;8.73;0.80;;;13.40;43.80;;;;;;6175134;28;20038;-72
2022/02/25 10:22:24;;;;;;;5.57;2.35;;;13.70;43.60;;;;;;6186333;28;20176;-70
2022/02/25 10:25:32;;;;;;;6.07;1.05;;;13.80;43.10;;;;;;6158111;28;20047;-72
2022/02/25 10:28:35;;;;;;;7.75;0.88;;;13.90;42.20;;;;;;6173988;28;20107;-71
2022/02/25 10:31:36;;;;;;;3.63;0.70;;;13.80;41.30;;;;;;6173735;28;20078;-71
2022/02/25 10:34:37;;;;;;;2.92;0.85;;;13.80;41.10;;;;;;6175387;28;20035;-71
2022/02/25 10:37:57;;;;;;;4.35;0.82;;;13.70;40.90;;;;;;6186499;28;20119;-71
2022/02/25 10:40:59;;;;;;;2.78;0.60;;;13.60;40.80;;;;;;6173608;28;20089;-71
2022/02/25 10:44:00;;;;;;;4.70;0.80;;;13.60;40.10;;;;;;6198506;28;20026;-71
2022/02/25 10:47:24;;;;;;;5.05;1.13;;;13.60;39.10;;;;;;6198476;28;20109;-71
2022/02/25 10:50:28;;;;;;;4.47;0.70;;;13.60;38.70;;;;;;6196620;28;20045;-74
2022/02/25 10:53:35;;;;;;;2.92;0.50;;;13.50;38.00;;;;;;6164069;28;20053;-71
2022/02/25 10:56:44;;;;;;;1.98;0.60;;;13.50;37.90;;;;;;6164559;28;20035;-72
2022/02/25 10:59:47;;;;;;;2.22;0.73;;;13.40;37.80;;;;;;6133036;28;20464;-73
2022/02/25 11:02:50;;;;;;;4.28;0.75;;;13.60;37.90;;;;;;6149044;28;20472;-72
2022/02/25 11:05:51;;;;;;;7.65;1.55;;;13.80;37.10;;;;;;6149836;28;20114;-71
2022/02/25 11:08:53;;;;;;;1.45;0.50;;;14.00;36.60;;;;;;6131858;28;20054;-71
2022/02/25 11:11:54;;;;;;;3.20;0.90;;;14.30;36.60;;;;;;6148541;28;20061;-71
2022/02/25 11:14:56;;;;;;;2.13;0.98;;;14.80;36.00;;;;;;6149651;28;20410;-72
2022/02/25 11:17:58;;;;;;;3.78;0.98;;;15.20;34.70;;;;;;6164228;28;20039;-71
2022/02/25 11:20:59;;;;;;;4.57;1.08;;;15.20;34.40;;;;;;6169318;28;20023;-72
2022/02/25 11:24:01;;;;;;;6.63;1.08;;;15.40;34.30;;;;;;6172230;28;20360;-71
2022/02/25 11:27:02;;;;;;;7.00;0.85;;;15.50;33.70;;;;;;6172399;28;20078;-72
2022/02/25 11:30:07;;;;;;;3.55;0.82;;;15.70;33.80;;;;;;6172324;28;20042;-72
2022/02/25 11:33:13;;;;;;;4.85;1.17;;;16.00;33.60;;;;;;6172362;28;20042;-72
2022/02/25 11:36:14;;;;;;;4.43;1.40;;;16.40;33.00;;;;;;6154951;28;20101;-73
2022/02/25 11:39:30;;;;;;;3.17;0.82;;;16.80;32.90;;;;;;6165462;28;20055;-73
2022/02/25 11:42:31;;;;;;;2.28;1.05;;;17.30;31.50;;;;;;6150072;28;20478;-71
2022/02/25 11:45:46;;;;;;;1.45;0.70;;;17.50;30.50;;;;;;6150079;28;20039;-72
2022/02/25 11:48:49;;;;;;;5.93;0.88;;;17.70;29.50;;;;;;6149680;28;20151;-72
2022/02/25 11:51:53;;;;;;;3.70;1.10;;;17.70;29.50;;;;;;6160192;28;20047;-72
2022/02/25 11:54:55;;;;;;;2.80;0.90;;;17.90;29.60;;;;;;6175068;28;20142;-72
2022/02/25 11:57:56;;;;;;;2.65;0.65;;;18.00;29.60;;;;;;6177875;28;20106;-71
2022/02/25 12:01:08;;;;;;;4.85;0.90;;;18.40;29.20;;;;;;6177687;28;20038;-71
2022/02/25 12:04:11;;;;;;;2.38;0.88;;;18.70;28.40;;;;;;6175421;28;20082;-71
2022/02/25 12:07:30;;;;;;;1.75;0.82;;;19.00;28.00;;;;;;6174699;28;20592;-72
2022/02/25 12:10:35;;;;;;;3.30;0.75;;;19.30;27.40;;;;;;6174094;28;20045;-72
2022/02/25 12:13:45;;;;;;;4.10;1.30;;;19.70;26.70;;;;;;6174377;28;20356;-72
2022/02/25 12:16:47;;;;;;;16.20;1.73;;;20.00;26.60;;;;;;6185729;28;20108;-72
2022/02/25 12:20:08;;;;;;;4.13;0.90;;;20.20;26.10;;;;;;6174251;28;20119;-73
2022/02/25 12:23:21;;;;;;;2.58;0.80;;;19.90;26.30;;;;;;6172701;28;20114;-72
2022/02/25 12:26:32;;;;;;;0.60;0.30;;;19.40;26.60;;;;;;6171808;28;20054;-72
2022/02/25 12:29:34;;;;;;;8.10;1.20;;;19.40;26.20;;;;;;6167137;28;20458;-71
2022/02/25 12:32:45;;;;;;;5.90;0.90;;;20.00;25.20;;;;;;6151994;28;20039;-71
2022/02/25 12:35:47;;;;;;;9.80;1.20;;;20.60;25.00;;;;;;6149796;28;20042;-73
2022/02/25 12:38:50;;;;;;;3.33;0.73;;;20.60;24.90;;;;;;6156121;28;20047;-73
2022/02/25 12:41:56;;;;;;;2.47;0.93;;;20.10;25.40;;;;;;6172266;28;20035;-72
2022/02/25 12:44:57;;;;;;;1.77;0.75;;;19.70;25.80;;;;;;6174517;28;20061;-73
2022/02/25 12:47:58;;;;;;;7.25;1.20;;;19.30;26.00;;;;;;6172863;28;20325;-72
2022/02/25 12:51:01;;;;;;;7.00;1.13;;;19.60;26.10;;;;;;6174311;28;20045;-71
2022/02/25 12:54:04;;;;;;;16.50;1.33;;;20.00;25.40;;;;;;6152397;28;20424;-72
2022/02/25 12:57:07;;;;;;;2.00;0.60;;;20.50;25.40;;;;;;6166007;28;20480;-72
2022/02/25 13:00:10;;;;;;;2.65;0.68;;;20.90;24.70;;;;;;6149844;28;20031;-72
2022/02/25 13:03:13;;;;;;;2.50;0.77;;;20.70;23.60;;;;;;6150520;28;20043;-73
2022/02/25 13:06:14;;;;;;;4.20;0.80;;;19.90;24.20;;;;;;6149337;28;20361;-72
2022/02/25 13:09:18;;;;;;;2.40;0.55;;;19.20;25.20;;;;;;6150390;28;20090;-74
2022/02/25 13:12:22;;;;;;;7.07;0.70;;;18.60;25.80;;;;;;6149131;28;20041;-72
2022/02/25 13:15:27;;;;;;;2.75;0.60;;;18.10;26.30;;;;;;6150966;28;20098;-72
2022/02/25 13:18:27;;;;;;;1.30;0.47;;;17.70;26.70;;;;;;6150276;28;20048;-72
2022/02/25 13:21:28;;;;;;;1.85;0.98;;;17.20;26.90;;;;;;6157157;28;20042;-71
2022/02/25 13:24:30;;;;;;;11.18;1.05;;;16.90;27.00;;;;;;6174375;28;20031;-71
2022/02/25 13:27:55;;;;;;;2.47;0.70;;;16.70;27.10;;;;;;6173889;28;20090;-72
2022/02/25 13:30:57;;;;;;;6.65;0.82;;;16.50;27.30;;;;;;6172233;28;20042;-72
2022/02/25 13:33:58;;;;;;;5.78;0.70;;;16.30;27.50;;;;;;6174269;28;20053;-71
2022/02/25 13:36:59;;;;;;;5.68;0.80;;;16.20;27.80;;;;;;6160884;28;20047;-72
2022/02/25 13:40:00;;;;;;;1.75;0.63;;;16.20;27.80;;;;;;6133345;28;20070;-70
2022/02/25 13:43:02;;;;;;;1.35;0.52;;;16.10;27.80;;;;;;6132706;28;20039;-72
2022/02/25 13:46:26;;;;;;;5.80;0.75;;;15.90;27.40;;;;;;6165149;28;20087;-70
2022/02/25 13:53:07;;;;;;;5.45;0.93;;;15.70;28.00;;;;;;6212998;28;20344;-72
2022/02/25 13:56:08;;;;;;;1.98;0.80;;;15.60;28.10;;;;;;6205815;28;20061;-71
2022/02/25 13:59:16;;;;;;;5.53;0.95;;;15.60;28.40;;;;;;6202656;28;20042;-71
2022/02/25 14:02:29;;;;;;;8.00;1.50;;;15.50;28.30;;;;;;6218389;28;20096;-72
2022/02/25 14:05:36;;;;;;;4.70;0.75;;;15.50;28.20;;;;;;6218773;28;20038;-71
2022/02/25 14:08:40;;;;;;;1.83;0.60;;;15.40;28.10;;;;;;6209758;28;20053;-71
2022/02/25 14:11:41;;;;;;;0.77;0.43;;;15.40;28.00;;;;;;6169100;28;20058;-71
2022/02/25 14:14:45;;;;;;;4.80;0.77;;;15.40;27.90;;;;;;6154210;28;20480;-72
2022/02/25 14:17:47;;;;;;;2.83;0.47;;;15.40;28.10;;;;;;6168799;28;20048;-72
2022/02/25 14:20:53;;;;;;;1.50;0.47;;;15.30;28.30;;;;;;6170612;28;24683;-72
2022/02/25 14:23:54;;;;;;;1.95;0.52;;;15.30;28.30;;;;;;6169849;28;20063;-72
2022/02/25 14:27:25;;;;;;;1.50;0.45;;;15.30;28.20;;;;;;6163226;28;20039;-71
2022/02/25 14:30:32;;;;;;;3.25;0.73;;;15.30;28.00;;;;;;6145010;29;20039;-72
2022/02/25 14:33:45;;;;;;;1.58;0.47;;;15.30;28.20;;;;;;6145853;29;20039;-72
2022/02/25 14:36:45;;;;;;;1.77;0.60;;;15.30;28.20;;;;;;6129026;29;20239;-71
2022/02/25 14:39:47;;;;;;;1.45;0.60;;;15.20;28.20;;;;;;6157668;28;20038;-72
2022/02/25 14:42:48;;;;;;;3.28;0.82;;;15.20;28.50;;;;;;6168918;28;20038;-72
2022/02/25 14:45:50;;;;;;;4.28;1.15;;;15.10;28.50;;;;;;6169096;28;20042;-71
2022/02/25 14:48:51;;;;;;;1.60;0.52;;;15.10;28.20;;;;;;6168204;28;20043;-72
2022/02/25 14:51:53;;;;;;;2.05;0.60;;;15.00;28.00;;;;;;6142881;28;20042;-71
2022/02/25 14:54:54;;;;;;;4.50;0.98;;;15.00;28.00;;;;;;6147400;28;20152;-72
2022/02/25 14:57:56;;;;;;;8.57;0.85;;;15.00;28.20;;;;;;6164765;28;20149;-72
2022/02/25 15:00:57;;;;;;;4.00;0.60;;;15.00;28.40;;;;;;6168161;28;20479;-73
2022/02/25 15:03:57;;;;;;;4.47;0.90;;;14.90;28.70;;;;;;6165655;28;20031;-73
2022/02/25 15:07:00;;;;;;;1.95;0.73;;;14.90;28.20;;;;;;6158710;28;20035;-71
2022/02/25 15:10:00;;;;;;;10.48;1.33;;;14.90;28.10;;;;;;6172889;28;20372;-72
2022/02/25 15:13:01;;;;;;;3.17;0.70;;;14.90;28.30;;;;;;6163709;28;20035;-72
2022/02/25 15:16:03;;;;;;;5.28;0.98;;;14.90;28.20;;;;;;6173445;28;20056;-71
2022/02/25 15:19:03;;;;;;;1.77;0.60;;;14.80;28.20;;;;;;6156701;28;20047;-71
2022/02/25 15:22:05;;;;;;;3.42;0.73;;;14.90;28.40;;;;;;6178193;28;20126;-72
2022/02/25 15:25:08;;;;;;;1.33;0.50;;;14.90;28.10;;;;;;6157052;28;20074;-71
2022/02/25 15:28:08;;;;;;;4.95;1.35;;;14.80;28.10;;;;;;6156951;28;20111;-72
2022/02/25 15:31:09;;;;;;;2.15;0.70;;;14.80;28.00;;;;;;6176214;28;20038;-72
2022/02/25 15:34:10;;;;;;;1.58;0.30;;;14.80;28.00;;;;;;6166446;28;20039;-72
2022/02/25 15:37:11;;;;;;;4.55;0.70;;;14.70;28.10;;;;;;6173605;28;20035;-72
2022/02/25 15:40:12;;;;;;;4.68;0.57;;;14.70;28.10;;;;;;6172932;28;20051;-72
2022/02/25 15:43:13;;;;;;;3.60;0.93;;;14.70;28.10;;;;;;6191144;28;20043;-72
2022/02/25 15:46:14;;;;;;;3.75;1.13;;;14.70;28.20;;;;;;6176151;28;20050;-72
2022/02/25 15:49:15;;;;;;;3.35;0.75;;;14.60;28.30;;;;;;6190773;28;20042;-72
2022/02/25 15:52:16;;;;;;;3.17;0.98;;;14.60;28.40;;;;;;6173540;28;20042;-72
2022/02/25 15:55:17;;;;;;;4.18;0.98;;;14.50;28.40;;;;;;6173757;28;20039;-71
2022/02/25 15:58:18;;;;;;;3.80;1.13;;;14.40;28.60;;;;;;6173585;28;20035;-72